Portada
METAR-TAF:

METAR-TAF

Aeropuertos :

Aeropuerto Internacional Rey Fahd

Dammam, Arabia Saudita

latitud: 26-28N, longitud: 049-47E, altitud: 22 m

Observación

El informe se hizo hace 10 minutos, a las 20:00 UTC
Viento 4 kt del suroeste
Temperatura 12°C
Humedad 62%
Presión 1021 hPa
Visibilidad 10 km o más
sin nubes por debajo de 1500 m y sin presencia de cumulonimbus.

METAR: OEDF 202000Z 23004KT CAVOK 12/05 Q1021 NOSIG

Hora: 23:10 (20:10 UTC)

Pronóstico

El informe se hizo hace 7 horas y 0 minutos, a las 13:10 UTC
Pronóstico válido del 20 a las 18 UTC al 21 a las 24 UTC
Viento 6 kt del norte
Visibilidad 10 km o más
sin nubes por debajo de 1500 m y sin presencia de cumulonimbus.
Temporalmente
del 20 a las 22 UTC al 21 a las 05 UTC
Visibilidad: 5000 m
neblina

TAF: OEDF 201310Z 2018/2124 36006KT CAVOK TEMPO 2022/2105 5000 BR

Observaciones y pronósticos meteorológicos de más de 4000 aeropuertos (mensajes METAR y TAF).

Los puntos amarillos y rojos representan las estaciones disponibles.

Ponga el ratón en el punto deseado para ver el nombre de la estación.

Haga clic para ver las observaciones y los pronósticos meteorológicos.

Para cambiar el mapa : haga clic en los botones verdes con una cruz de color negro para hacer un zoom, en el botón verde con un guión para alejar o en las flechas verdes para mapas adyacentes.


METAR-TAF: